FDX351 HKJK-HKMO
Flight info
| Callsign | FDX351 |
|---|---|
| Flight time | 0h 44m |
| Altitude | 31000 |
| Route | ATUDU1D UVOVA UQ135 NEREV NEREV3A |
| Aircraft | B77L/H-SDE1E2E3FGHIJ2J3J4J5M1RWXY/LB1D1 |
Departure
| Time | 2026-04-21 10:32 |
|---|---|
| Airport | Jomo Kenyatta International Airport (HKJK) |
Arrival
| Time | 2026-04-21 11:16 |
|---|---|
| Airport | Moi International Airport (HKMO) |
| Time | Latitude | Longitude | Altitude | Speed | Heading |
|---|---|---|---|---|---|
| 2026-04-21 09:58 | -1.33274 | 36.91705 | 5331 ft | 0 kts | 144° |
| 2026-04-21 10:23 | -1.33260 | 36.91694 | 5348 ft | 3 kts | 140° |
| 2026-04-21 10:23 | -1.33240 | 36.91676 | 5331 ft | 3 kts | 133° |
| 2026-04-21 10:23 | -1.33223 | 36.91656 | 5340 ft | 3 kts | 121° |
| 2026-04-21 10:24 | -1.33212 | 36.91632 | 5331 ft | 3 kts | 92° |
| 2026-04-21 10:24 | -1.33217 | 36.91615 | 5334 ft | 0 kts | 38° |
| 2026-04-21 10:24 | -1.33220 | 36.91612 | 5334 ft | 2 kts | 38° |
| 2026-04-21 10:27 | -1.33217 | 36.91615 | 5334 ft | 1 kts | 39° |
| 2026-04-21 10:27 | -1.33208 | 36.91622 | 5333 ft | 2 kts | 39° |
| 2026-04-21 10:27 | -1.33195 | 36.91633 | 5333 ft | 3 kts | 39° |
| 2026-04-21 10:28 | -1.33177 | 36.91647 | 5333 ft | 4 kts | 39° |
| 2026-04-21 10:28 | -1.33155 | 36.91665 | 5334 ft | 5 kts | 39° |
| 2026-04-21 10:28 | -1.33131 | 36.91689 | 5334 ft | 5 kts | 48° |
| 2026-04-21 10:28 | -1.33107 | 36.91719 | 5335 ft | 6 kts | 52° |
| 2026-04-21 10:29 | -1.33081 | 36.91753 | 5335 ft | 6 kts | 54° |
| 2026-04-21 10:29 | -1.33055 | 36.91789 | 5338 ft | 6 kts | 52° |
| 2026-04-21 10:29 | -1.33019 | 36.91813 | 5342 ft | 6 kts | 5° |
| 2026-04-21 10:29 | -1.32978 | 36.91797 | 5344 ft | 6 kts | 335° |
| 2026-04-21 10:30 | -1.32939 | 36.91775 | 5344 ft | 6 kts | 327° |
| 2026-04-21 10:30 | -1.32899 | 36.91749 | 5345 ft | 8 kts | 325° |
| 2026-04-21 10:30 | -1.32849 | 36.91712 | 5345 ft | 10 kts | 324° |
| 2026-04-21 10:30 | -1.32791 | 36.91672 | 5345 ft | 10 kts | 326° |
| 2026-04-21 10:31 | -1.32726 | 36.91690 | 5345 ft | 11 kts | 47° |
| 2026-04-21 10:31 | -1.32648 | 36.91789 | 5341 ft | 46 kts | 54° |
| 2026-04-21 10:31 | -1.32218 | 36.92377 | 5317 ft | 162 kts | 53° |
| 2026-04-21 10:31 | -1.31418 | 36.93463 | 5856 ft | 200 kts | 54° |
| 2026-04-21 10:32 | -1.30706 | 36.94585 | 7134 ft | 186 kts | 66° |
| 2026-04-21 10:32 | -1.30295 | 36.95840 | 7725 ft | 198 kts | 82° |
| 2026-04-21 10:32 | -1.30171 | 36.97259 | 8197 ft | 216 kts | 84° |
| 2026-04-21 10:32 | -1.29944 | 36.98844 | 8454 ft | 249 kts | 81° |
| 2026-04-21 10:33 | -1.29664 | 37.00654 | 8898 ft | 273 kts | 82° |
| 2026-04-21 10:33 | -1.29390 | 37.02568 | 9765 ft | 282 kts | 82° |
| 2026-04-21 10:33 | -1.29130 | 37.04522 | 10549 ft | 289 kts | 83° |
| 2026-04-21 10:33 | -1.28873 | 37.06596 | 11040 ft | 314 kts | 83° |
| 2026-04-21 10:34 | -1.28603 | 37.08872 | 11224 ft | 348 kts | 83° |
| 2026-04-21 10:34 | -1.28318 | 37.11328 | 11213 ft | 358 kts | 83° |
| 2026-04-21 10:34 | -1.28211 | 37.13763 | 11192 ft | 357 kts | 96° |
| 2026-04-21 10:34 | -1.29027 | 37.16123 | 11392 ft | 366 kts | 120° |
| 2026-04-21 10:35 | -1.30615 | 37.18132 | 12401 ft | 372 kts | 132° |
| 2026-04-21 10:35 | -1.32452 | 37.19963 | 13556 ft | 375 kts | 134° |
| 2026-04-21 10:35 | -1.34332 | 37.21799 | 14569 ft | 381 kts | 134° |
| 2026-04-21 10:35 | -1.36248 | 37.23660 | 15487 ft | 387 kts | 134° |
| 2026-04-21 10:36 | -1.38188 | 37.25545 | 16458 ft | 392 kts | 134° |
| 2026-04-21 10:36 | -1.40151 | 37.27459 | 17410 ft | 397 kts | 134° |
| 2026-04-21 10:36 | -1.42131 | 37.29398 | 18335 ft | 402 kts | 134° |
| 2026-04-21 10:36 | -1.44138 | 37.31370 | 19098 ft | 408 kts | 134° |
| 2026-04-21 10:37 | -1.46152 | 37.33353 | 19822 ft | 413 kts | 134° |
| 2026-04-21 10:37 | -1.48212 | 37.35383 | 20589 ft | 418 kts | 134° |
| 2026-04-21 10:37 | -1.50288 | 37.37431 | 21328 ft | 423 kts | 134° |
| 2026-04-21 10:37 | -1.52401 | 37.39517 | 22038 ft | 429 kts | 134° |
| 2026-04-21 10:38 | -1.54535 | 37.41623 | 22743 ft | 434 kts | 134° |
| 2026-04-21 10:38 | -1.56685 | 37.43746 | 23436 ft | 439 kts | 134° |
| 2026-04-21 10:38 | -1.58877 | 37.45910 | 24043 ft | 444 kts | 134° |
| 2026-04-21 10:38 | -1.61046 | 37.48052 | 24594 ft | 448 kts | 134° |
| 2026-04-21 10:39 | -1.63268 | 37.50246 | 25182 ft | 451 kts | 134° |
| 2026-04-21 10:39 | -1.65508 | 37.52456 | 25835 ft | 452 kts | 134° |
| 2026-04-21 10:39 | -1.67740 | 37.54659 | 26543 ft | 452 kts | 134° |
| 2026-04-21 10:39 | -1.69981 | 37.56871 | 27294 ft | 451 kts | 134° |
| 2026-04-21 10:40 | -1.72212 | 37.59075 | 28160 ft | 449 kts | 134° |
| 2026-04-21 10:40 | -1.74431 | 37.61265 | 28906 ft | 449 kts | 134° |
| 2026-04-21 10:40 | -1.76659 | 37.63466 | 29122 ft | 451 kts | 134° |
| 2026-04-21 10:41 | -1.81083 | 37.67854 | 29102 ft | 446 kts | 134° |
| 2026-04-21 10:41 | -1.85430 | 37.72192 | 29079 ft | 444 kts | 134° |
| 2026-04-21 10:42 | -1.89806 | 37.76561 | 29082 ft | 445 kts | 134° |
| 2026-04-21 10:42 | -1.94190 | 37.80936 | 29075 ft | 446 kts | 134° |
| 2026-04-21 10:43 | -1.98584 | 37.85319 | 29059 ft | 447 kts | 134° |
| 2026-04-21 10:43 | -2.02982 | 37.89706 | 29057 ft | 447 kts | 134° |
| 2026-04-21 10:44 | -2.07351 | 37.94064 | 29038 ft | 447 kts | 134° |
| 2026-04-21 10:44 | -2.11765 | 37.98468 | 29035 ft | 447 kts | 134° |
| 2026-04-21 10:45 | -2.16163 | 38.02857 | 29029 ft | 447 kts | 134° |
| 2026-04-21 10:45 | -2.20558 | 38.07243 | 29019 ft | 446 kts | 134° |
| 2026-04-21 10:46 | -2.24955 | 38.11630 | 29007 ft | 446 kts | 134° |
| 2026-04-21 10:46 | -2.29308 | 38.15974 | 29001 ft | 446 kts | 134° |
| 2026-04-21 10:47 | -2.33737 | 38.20395 | 28988 ft | 446 kts | 134° |
| 2026-04-21 10:47 | -2.38112 | 38.24763 | 28985 ft | 446 kts | 134° |
| 2026-04-21 10:48 | -2.42481 | 38.29125 | 28974 ft | 446 kts | 134° |
| 2026-04-21 10:48 | -2.46858 | 38.33494 | 28971 ft | 445 kts | 134° |
| 2026-04-21 10:49 | -2.51243 | 38.37873 | 28979 ft | 445 kts | 134° |
| 2026-04-21 10:49 | -2.55620 | 38.42244 | 28960 ft | 445 kts | 134° |
| 2026-04-21 10:50 | -2.59965 | 38.46583 | 28959 ft | 444 kts | 134° |
| 2026-04-21 10:50 | -2.64337 | 38.50950 | 28948 ft | 444 kts | 134° |
| 2026-04-21 10:51 | -2.68689 | 38.55297 | 28935 ft | 433 kts | 134° |
| 2026-04-21 10:51 | -2.70787 | 38.57391 | 28915 ft | 416 kts | 134° |
| 2026-04-21 10:51 | -2.72789 | 38.59390 | 28916 ft | 402 kts | 134° |
| 2026-04-21 10:52 | -2.76733 | 38.63332 | 28720 ft | 398 kts | 134° |
| 2026-04-21 10:52 | -2.78676 | 38.65274 | 28413 ft | 396 kts | 134° |
| 2026-04-21 10:52 | -2.80597 | 38.67194 | 28003 ft | 393 kts | 134° |
| 2026-04-21 10:52 | -2.82528 | 38.69124 | 27581 ft | 390 kts | 134° |
| 2026-04-21 10:53 | -2.84437 | 38.71032 | 27151 ft | 387 kts | 134° |
| 2026-04-21 10:53 | -2.86338 | 38.72931 | 26742 ft | 385 kts | 134° |
| 2026-04-21 10:53 | -2.88224 | 38.74817 | 26326 ft | 383 kts | 134° |
| 2026-04-21 10:53 | -2.90103 | 38.76696 | 25908 ft | 381 kts | 134° |
| 2026-04-21 10:54 | -2.91974 | 38.78566 | 25484 ft | 379 kts | 134° |
| 2026-04-21 10:54 | -2.93845 | 38.80436 | 25072 ft | 378 kts | 134° |
| 2026-04-21 10:54 | -2.95698 | 38.82289 | 24670 ft | 377 kts | 134° |
| 2026-04-21 10:54 | -2.97524 | 38.84115 | 24251 ft | 376 kts | 134° |
| 2026-04-21 10:55 | -2.99370 | 38.85960 | 23843 ft | 375 kts | 134° |
| 2026-04-21 10:55 | -3.01215 | 38.87805 | 23418 ft | 374 kts | 134° |
| 2026-04-21 10:55 | -3.03059 | 38.89648 | 22943 ft | 373 kts | 134° |
| 2026-04-21 10:55 | -3.04885 | 38.91475 | 22514 ft | 370 kts | 134° |
| 2026-04-21 10:56 | -3.06694 | 38.93283 | 22112 ft | 368 kts | 134° |
| 2026-04-21 10:56 | -3.08503 | 38.95092 | 21706 ft | 365 kts | 134° |
| 2026-04-21 10:56 | -3.10290 | 38.96880 | 21305 ft | 362 kts | 133° |
| 2026-04-21 10:56 | -3.12060 | 38.98650 | 20909 ft | 360 kts | 133° |
| 2026-04-21 10:57 | -3.13831 | 39.00421 | 20513 ft | 357 kts | 133° |
| 2026-04-21 10:57 | -3.15581 | 39.02172 | 20121 ft | 355 kts | 133° |
| 2026-04-21 10:57 | -3.17312 | 39.03904 | 19728 ft | 353 kts | 133° |
| 2026-04-21 10:57 | -3.19027 | 39.05621 | 19338 ft | 351 kts | 133° |
| 2026-04-21 10:58 | -3.20742 | 39.07337 | 18932 ft | 349 kts | 133° |
| 2026-04-21 10:58 | -3.22457 | 39.09053 | 18544 ft | 347 kts | 133° |
| 2026-04-21 10:58 | -3.24155 | 39.10751 | 18154 ft | 345 kts | 133° |
| 2026-04-21 10:58 | -3.25863 | 39.12433 | 17708 ft | 343 kts | 134° |
| 2026-04-21 10:59 | -3.27586 | 39.14085 | 17302 ft | 340 kts | 134° |
| 2026-04-21 10:59 | -3.29289 | 39.15708 | 16910 ft | 337 kts | 134° |
| 2026-04-21 10:59 | -3.30968 | 39.17307 | 16537 ft | 333 kts | 134° |
| 2026-04-21 10:59 | -3.32639 | 39.18901 | 16173 ft | 330 kts | 134° |
| 2026-04-21 11:00 | -3.34291 | 39.20479 | 15800 ft | 326 kts | 134° |
| 2026-04-21 11:00 | -3.35904 | 39.22023 | 15444 ft | 323 kts | 134° |
| 2026-04-21 11:00 | -3.37517 | 39.23567 | 15079 ft | 320 kts | 134° |
| 2026-04-21 11:00 | -3.39143 | 39.25125 | 14728 ft | 317 kts | 134° |
| 2026-04-21 11:01 | -3.40702 | 39.26618 | 14372 ft | 314 kts | 134° |
| 2026-04-21 11:01 | -3.42280 | 39.28131 | 14015 ft | 313 kts | 134° |
| 2026-04-21 11:01 | -3.43844 | 39.29631 | 13657 ft | 310 kts | 134° |
| 2026-04-21 11:02 | -3.46935 | 39.32594 | 12900 ft | 304 kts | 134° |
| 2026-04-21 11:02 | -3.48452 | 39.34048 | 12551 ft | 301 kts | 134° |
| 2026-04-21 11:02 | -3.49934 | 39.35469 | 12216 ft | 297 kts | 134° |
| 2026-04-21 11:02 | -3.51437 | 39.36910 | 11875 ft | 293 kts | 134° |
| 2026-04-21 11:03 | -3.52897 | 39.38310 | 11547 ft | 289 kts | 134° |
| 2026-04-21 11:03 | -3.54325 | 39.39680 | 11224 ft | 286 kts | 134° |
| 2026-04-21 11:03 | -3.55744 | 39.41040 | 10927 ft | 282 kts | 134° |
| 2026-04-21 11:03 | -3.57147 | 39.42386 | 10609 ft | 279 kts | 135° |
| 2026-04-21 11:04 | -3.58547 | 39.43730 | 10306 ft | 280 kts | 135° |
| 2026-04-21 11:04 | -3.59950 | 39.45075 | 10184 ft | 274 kts | 135° |
| 2026-04-21 11:04 | -3.61304 | 39.46373 | 10041 ft | 265 kts | 135° |
| 2026-04-21 11:04 | -3.62614 | 39.47629 | 9900 ft | 255 kts | 134° |
| 2026-04-21 11:05 | -3.63899 | 39.48863 | 9616 ft | 261 kts | 135° |
| 2026-04-21 11:05 | -3.65239 | 39.50151 | 9332 ft | 272 kts | 135° |
| 2026-04-21 11:05 | -3.66602 | 39.51458 | 9032 ft | 277 kts | 135° |
| 2026-04-21 11:05 | -3.67997 | 39.52799 | 8704 ft | 278 kts | 135° |
| 2026-04-21 11:06 | -3.69381 | 39.54130 | 8372 ft | 274 kts | 135° |
| 2026-04-21 11:06 | -3.70747 | 39.55438 | 8056 ft | 269 kts | 135° |
| 2026-04-21 11:06 | -3.72084 | 39.56716 | 7754 ft | 263 kts | 136° |
| 2026-04-21 11:06 | -3.73399 | 39.57972 | 7458 ft | 258 kts | 136° |
| 2026-04-21 11:07 | -3.74677 | 39.59201 | 7177 ft | 253 kts | 136° |
| 2026-04-21 11:07 | -3.75954 | 39.60429 | 6915 ft | 257 kts | 136° |
| 2026-04-21 11:07 | -3.77119 | 39.61782 | 6635 ft | 263 kts | 118° |
| 2026-04-21 11:07 | -3.77485 | 39.63567 | 6320 ft | 262 kts | 87° |
| 2026-04-21 11:08 | -3.77037 | 39.65339 | 5738 ft | 262 kts | 73° |
| 2026-04-21 11:08 | -3.76518 | 39.67045 | 5497 ft | 251 kts | 76° |
| 2026-04-21 11:08 | -3.76063 | 39.68691 | 5465 ft | 234 kts | 76° |
| 2026-04-21 11:08 | -3.75812 | 39.70250 | 5445 ft | 231 kts | 96° |
| 2026-04-21 11:09 | -3.76390 | 39.71715 | 5210 ft | 227 kts | 131° |
| 2026-04-21 11:09 | -3.77662 | 39.72586 | 5075 ft | 220 kts | 162° |
| 2026-04-21 11:09 | -3.79197 | 39.72758 | 4860 ft | 231 kts | 184° |
| 2026-04-21 11:09 | -3.80724 | 39.72266 | 4591 ft | 231 kts | 208° |
| 2026-04-21 11:10 | -3.82052 | 39.71456 | 4298 ft | 220 kts | 208° |
| 2026-04-21 11:10 | -3.83371 | 39.70716 | 4010 ft | 213 kts | 207° |
| 2026-04-21 11:10 | -3.84631 | 39.70014 | 3724 ft | 202 kts | 208° |
| 2026-04-21 11:10 | -3.85797 | 39.69360 | 3489 ft | 190 kts | 208° |
| 2026-04-21 11:11 | -3.86925 | 39.68725 | 3251 ft | 181 kts | 208° |
| 2026-04-21 11:11 | -3.87999 | 39.68121 | 3043 ft | 172 kts | 208° |
| 2026-04-21 11:11 | -3.89025 | 39.67544 | 2819 ft | 165 kts | 207° |
| 2026-04-21 11:11 | -3.89979 | 39.67009 | 2632 ft | 151 kts | 208° |
| 2026-04-21 11:12 | -3.90848 | 39.66518 | 2402 ft | 134 kts | 207° |
| 2026-04-21 11:12 | -3.91660 | 39.66064 | 2294 ft | 135 kts | 206° |
| 2026-04-21 11:12 | -3.92492 | 39.65597 | 2102 ft | 141 kts | 208° |
| 2026-04-21 11:12 | -3.93346 | 39.65116 | 1920 ft | 139 kts | 206° |
| 2026-04-21 11:13 | -3.94163 | 39.64656 | 1713 ft | 136 kts | 206° |
| 2026-04-21 11:13 | -3.95009 | 39.64183 | 1589 ft | 142 kts | 207° |
| 2026-04-21 11:13 | -3.95865 | 39.63701 | 1377 ft | 138 kts | 207° |
| 2026-04-21 11:13 | -3.96683 | 39.63242 | 1207 ft | 134 kts | 206° |
| 2026-04-21 11:14 | -3.97520 | 39.62771 | 1042 ft | 141 kts | 207° |
| 2026-04-21 11:14 | -3.98367 | 39.62300 | 906 ft | 135 kts | 208° |
| 2026-04-21 11:14 | -3.99212 | 39.61832 | 704 ft | 141 kts | 208° |
| 2026-04-21 11:14 | -4.00055 | 39.61353 | 548 ft | 136 kts | 207° |
| 2026-04-21 11:15 | -4.00893 | 39.60890 | 394 ft | 143 kts | 207° |
| 2026-04-21 11:15 | -4.01760 | 39.60395 | 280 ft | 141 kts | 208° |
| 2026-04-21 11:15 | -4.02607 | 39.59901 | 221 ft | 130 kts | 203° |
| 2026-04-21 11:15 | -4.03261 | 39.59557 | 219 ft | 82 kts | 209° |
| 2026-04-21 11:16 | -4.03607 | 39.59368 | 215 ft | 40 kts | 208° |
| 2026-04-21 11:16 | -4.03854 | 39.59229 | 212 ft | 34 kts | 208° |
| 2026-04-21 11:16 | -4.03950 | 39.59235 | 218 ft | 12 kts | 118° |
| 2026-04-21 11:16 | -4.03952 | 39.59318 | 213 ft | 13 kts | 77° |
| 2026-04-21 11:17 | -4.03904 | 39.59391 | 215 ft | 13 kts | 36° |
| 2026-04-21 11:17 | -4.03821 | 39.59440 | 215 ft | 14 kts | 30° |
| 2026-04-21 11:17 | -4.03736 | 39.59490 | 215 ft | 15 kts | 30° |
| 2026-04-21 11:17 | -4.03665 | 39.59549 | 215 ft | 0 kts | 39° |
| 2026-04-21 11:18 | -4.03664 | 39.59550 | 215 ft | 0 kts | 39° |
| 2026-04-21 11:19 | -4.03662 | 39.59550 | 215 ft | 0 kts | 29° |
| 2026-04-21 11:19 | -4.03661 | 39.59550 | 215 ft | 0 kts | 23° |
| 2026-04-21 11:19 | -4.03659 | 39.59552 | 215 ft | 1 kts | 34° |
| 2026-04-21 11:19 | -4.03653 | 39.59560 | 219 ft | 2 kts | 46° |
| 2026-04-21 11:20 | -4.03636 | 39.59576 | 218 ft | 4 kts | 45° |
| 2026-04-21 11:20 | -4.03606 | 39.59601 | 215 ft | 6 kts | 33° |
| 2026-04-21 11:20 | -4.03562 | 39.59626 | 215 ft | 8 kts | 28° |
| 2026-04-21 11:20 | -4.03504 | 39.59658 | 218 ft | 10 kts | 31° |
| 2026-04-21 11:21 | -4.03457 | 39.59716 | 218 ft | 12 kts | 69° |
| 2026-04-21 11:21 | -4.03445 | 39.59799 | 212 ft | 13 kts | 82° |
| 2026-04-21 11:21 | -4.03434 | 39.59879 | 216 ft | 11 kts | 75° |
| 2026-04-21 11:21 | -4.03391 | 39.59941 | 215 ft | 11 kts | 46° |
| 2026-04-21 11:22 | -4.03336 | 39.60003 | 221 ft | 12 kts | 59° |
| 2026-04-21 11:22 | -4.03297 | 39.60055 | 219 ft | 8 kts | 40° |
| 2026-04-21 11:22 | -4.03244 | 39.60088 | 213 ft | 10 kts | 29° |
| 2026-04-21 11:22 | -4.03176 | 39.60124 | 213 ft | 12 kts | 28° |
| 2026-04-21 11:23 | -4.03101 | 39.60166 | 215 ft | 13 kts | 30° |
| 2026-04-21 11:23 | -4.03018 | 39.60213 | 221 ft | 14 kts | 27° |
| 2026-04-21 11:23 | -4.02943 | 39.60253 | 217 ft | 10 kts | 29° |
| 2026-04-21 11:23 | -4.02897 | 39.60279 | 215 ft | 6 kts | 29° |
| 2026-04-21 11:24 | -4.02868 | 39.60292 | 215 ft | 5 kts | 9° |
| 2026-04-21 11:24 | -4.02838 | 39.60275 | 210 ft | 6 kts | 308° |
| 2026-04-21 11:24 | -4.02816 | 39.60233 | 214 ft | 7 kts | 297° |
| 2026-04-21 11:24 | -4.02792 | 39.60190 | 217 ft | 7 kts | 305° |
| 2026-04-21 11:25 | -4.02749 | 39.60182 | 216 ft | 7 kts | 24° |
| 2026-04-21 11:25 | -4.02746 | 39.60183 | 221 ft | 0 kts | 24° |
| 2026-04-21 11:27 | -4.02747 | 39.60183 | 221 ft | 0 kts | 24° |